createdAt,value
2018-01-13T00:02:20.841Z,21.26
2018-01-13T00:04:46.833Z,21.21
2018-01-13T00:07:12.829Z,21.25
2018-01-13T00:09:38.825Z,21.24
2018-01-13T00:12:04.808Z,21.24
2018-01-13T00:14:30.866Z,21.24
2018-01-13T00:16:56.892Z,21.23
2018-01-13T00:19:22.887Z,21.26
2018-01-13T00:21:48.897Z,21.24
2018-01-13T00:24:15.005Z,21.23
2018-01-13T00:26:41.013Z,21.21
2018-01-13T00:29:07.024Z,21.20
2018-01-13T00:31:33.023Z,21.15
2018-01-13T00:33:59.168Z,21.16
2018-01-13T00:36:25.154Z,21.14
2018-01-13T00:38:51.152Z,21.19
2018-01-13T00:41:17.321Z,21.15
2018-01-13T00:43:43.453Z,21.14
2018-01-13T00:46:09.440Z,21.17
2018-01-13T00:48:35.516Z,21.10
2018-01-13T00:51:01.614Z,21.11
2018-01-13T00:53:27.601Z,21.12
2018-01-13T00:55:53.616Z,21.20
2018-01-13T00:58:19.605Z,21.18
2018-01-13T01:00:45.621Z,21.12
2018-01-13T01:03:11.618Z,21.19
2018-01-13T01:05:37.615Z,21.17
2018-01-13T01:08:03.809Z,21.16
2018-01-13T01:10:29.789Z,21.10
2018-01-13T01:12:55.789Z,21.19
2018-01-13T01:15:21.798Z,21.17
2018-01-13T01:17:48.029Z,21.11
2018-01-13T01:20:14.012Z,21.06
2018-01-13T01:22:39.990Z,21.06
2018-01-13T01:25:06.017Z,21.09
2018-01-13T01:27:32.255Z,21.12
2018-01-13T01:32:29.724Z,21.08
2018-01-13T01:34:55.723Z,21.05
2018-01-13T01:37:21.816Z,21.01
2018-01-13T01:39:47.832Z,21.13
2018-01-13T01:42:13.919Z,21.07
2018-01-13T01:44:39.938Z,21.05
2018-01-13T01:47:05.968Z,21.16
2018-01-13T01:49:33.008Z,21.08
2018-01-13T01:51:59.018Z,21.07
2018-01-13T01:54:25.371Z,21.08
2018-01-13T01:56:51.430Z,21.12
2018-01-13T01:59:17.424Z,21.07
2018-01-13T02:01:43.420Z,21.10
2018-01-13T02:04:09.546Z,21.04
2018-01-13T02:06:35.526Z,21.03
2018-01-13T02:09:01.514Z,21.10
2018-01-13T02:11:27.549Z,21.05
2018-01-13T02:13:53.543Z,21.03
2018-01-13T02:16:19.625Z,21.09
2018-01-13T02:18:45.625Z,21.04
2018-01-13T02:21:11.775Z,20.96
2018-01-13T02:23:37.833Z,21.02
2018-01-13T02:26:03.854Z,21.02
2018-01-13T02:28:29.822Z,21.04
2018-01-13T02:30:55.915Z,21.00
2018-01-13T02:33:21.891Z,21.04
2018-01-13T02:35:47.887Z,21.10
2018-01-13T02:38:13.883Z,21.02
2018-01-13T02:40:40.010Z,21.04
2018-01-13T02:43:06.051Z,21.02
2018-01-13T02:45:32.031Z,21.04
2018-01-13T02:47:58.050Z,21.01
2018-01-13T02:50:24.026Z,21.04
2018-01-13T02:52:50.008Z,21.03
2018-01-13T02:55:16.008Z,21.02
2018-01-13T03:05:17.763Z,21.01
2018-01-13T03:07:43.819Z,21.07
2018-01-13T03:10:09.783Z,21.05
2018-01-13T03:12:35.747Z,20.96
2018-01-13T03:15:01.727Z,20.95
2018-01-13T03:19:59.395Z,20.93
2018-01-13T03:22:25.377Z,20.96
2018-01-13T03:24:51.344Z,20.98
2018-01-13T03:27:17.339Z,20.96
2018-01-13T03:29:43.573Z,20.93
2018-01-13T03:32:09.574Z,20.99
2018-01-13T03:34:35.575Z,20.94
2018-01-13T03:37:01.554Z,20.94
2018-01-13T03:39:27.614Z,20.97
2018-01-13T03:41:53.799Z,20.95
2018-01-13T03:44:19.801Z,20.93
2018-01-13T03:46:45.804Z,20.99
2018-01-13T03:49:12.031Z,20.97
2018-01-13T03:51:38.033Z,20.95
2018-01-13T03:54:04.043Z,21.04
2018-01-13T03:56:30.064Z,21.00
2018-01-13T03:58:56.074Z,20.92
2018-01-13T04:01:22.085Z,20.91
2018-01-13T04:03:48.059Z,20.85
2018-01-13T04:06:14.080Z,20.84
2018-01-13T04:08:40.070Z,20.88
2018-01-13T04:11:06.080Z,20.87
2018-01-13T04:16:08.445Z,20.88
2018-01-13T04:18:34.464Z,20.87
2018-01-13T04:21:00.442Z,20.87
2018-01-13T04:23:26.437Z,20.93
2018-01-13T04:25:52.425Z,20.90
2018-01-13T04:28:18.417Z,20.91
2018-01-13T04:30:44.433Z,20.96
2018-01-13T04:33:10.424Z,20.87
2018-01-13T04:35:36.453Z,20.96
2018-01-13T04:38:02.444Z,20.94
2018-01-13T04:40:28.463Z,20.93
2018-01-13T04:42:55.540Z,20.88
2018-01-13T04:45:21.689Z,20.86
2018-01-13T04:47:47.655Z,20.83
2018-01-13T04:50:13.644Z,20.81
2018-01-13T04:52:39.697Z,20.84
2018-01-13T04:55:05.747Z,20.78
2018-01-13T04:57:31.818Z,20.79
2018-01-13T04:59:57.837Z,20.80
2018-01-13T05:02:23.846Z,20.82
2018-01-13T05:04:49.902Z,20.80
2018-01-13T05:07:15.937Z,20.73
2018-01-13T05:09:41.922Z,20.85
2018-01-13T05:12:07.936Z,20.78
2018-01-13T05:14:33.956Z,20.87
2018-01-13T05:16:59.981Z,20.80
2018-01-13T05:19:25.993Z,20.86
2018-01-13T05:21:52.059Z,20.88
2018-01-13T05:24:18.065Z,20.88
2018-01-13T05:26:44.041Z,21.01
2018-01-13T05:29:10.150Z,20.85
2018-01-13T05:31:36.186Z,20.83
2018-01-13T05:34:02.183Z,20.87
2018-01-13T05:36:28.201Z,20.84
2018-01-13T05:38:54.262Z,20.85
2018-01-13T05:41:20.240Z,20.78
2018-01-13T05:43:46.228Z,20.78
2018-01-13T05:46:12.227Z,20.73
2018-01-13T05:48:38.235Z,20.76
2018-01-13T05:51:04.282Z,20.72
2018-01-13T05:53:30.267Z,20.73
2018-01-13T05:55:56.319Z,20.78
2018-01-13T05:58:22.316Z,20.78
2018-01-13T06:00:48.312Z,20.79
2018-01-13T06:03:14.361Z,20.78
2018-01-13T06:05:40.343Z,20.72
2018-01-13T06:08:06.343Z,20.73
2018-01-13T06:10:32.334Z,20.81
2018-01-13T06:12:58.331Z,20.83
2018-01-13T06:15:24.323Z,20.85
2018-01-13T06:17:50.308Z,20.79
2018-01-13T06:20:16.330Z,20.85
2018-01-13T06:22:42.335Z,21.01
2018-01-13T06:25:08.309Z,21.01
2018-01-13T06:27:34.365Z,21.05
2018-01-13T06:30:00.365Z,21.02
2018-01-13T06:32:26.360Z,21.10
2018-01-13T06:34:52.332Z,21.09
2018-01-13T06:37:18.328Z,21.14
2018-01-13T06:39:44.329Z,21.21
2018-01-13T06:42:10.319Z,21.27
2018-01-13T06:44:36.340Z,21.28
2018-01-13T06:47:02.322Z,21.29
2018-01-13T06:49:28.319Z,21.34
2018-01-13T06:51:54.390Z,21.42
2018-01-13T06:54:20.372Z,21.36
2018-01-13T06:59:23.648Z,21.49
2018-01-13T07:01:49.638Z,21.54
2018-01-13T07:04:15.669Z,21.47
2018-01-13T07:06:41.633Z,21.54
2018-01-13T07:09:07.650Z,21.60
2018-01-13T07:11:33.625Z,21.63
2018-01-13T07:13:59.804Z,21.59
2018-01-13T07:16:25.800Z,21.53
2018-01-13T07:18:51.821Z,21.61
2018-01-13T07:21:19.838Z,21.52
2018-01-13T07:23:46.027Z,21.59
2018-01-13T07:26:12.009Z,21.57
2018-01-13T07:28:38.303Z,21.57
2018-01-13T07:31:04.513Z,21.64
2018-01-13T07:33:30.803Z,21.60
2018-01-13T07:35:57.304Z,21.57
2018-01-13T07:38:24.938Z,21.69
2018-01-13T07:40:51.051Z,21.68
2018-01-13T07:43:17.152Z,21.62
2018-01-13T07:45:43.189Z,21.58
2018-01-13T07:48:09.187Z,21.65
2018-01-13T07:50:39.784Z,21.73
2018-01-13T07:53:05.828Z,21.64
2018-01-13T07:55:31.868Z,21.75
2018-01-13T07:57:58.410Z,21.67
2018-01-13T08:00:25.408Z,21.73
2018-01-13T08:02:51.540Z,21.62
2018-01-13T08:05:17.530Z,21.66
2018-01-13T08:07:43.546Z,21.55
2018-01-13T08:10:13.526Z,21.55
2018-01-13T08:12:39.756Z,21.61
2018-01-13T08:15:05.924Z,21.57
2018-01-13T08:17:32.891Z,21.61
2018-01-13T08:19:59.297Z,21.62
2018-01-13T08:22:26.192Z,21.53
2018-01-13T08:24:52.254Z,21.61
2018-01-13T08:27:21.457Z,21.59
2018-01-13T08:29:47.710Z,21.66
2018-01-13T08:32:13.710Z,21.56
2018-01-13T08:34:39.986Z,21.60
2018-01-13T08:37:07.419Z,21.68
2018-01-13T08:39:33.564Z,21.69
2018-01-13T08:41:59.562Z,21.76
2018-01-13T08:44:25.563Z,21.78
2018-01-13T08:46:51.684Z,21.73
2018-01-13T08:49:17.783Z,21.78
2018-01-13T08:51:44.273Z,21.75
2018-01-13T08:54:11.745Z,21.76
2018-01-13T08:56:38.379Z,21.68
2018-01-13T08:59:04.740Z,21.51
2018-01-13T09:01:30.802Z,21.16
2018-01-13T09:03:56.829Z,21.46
2018-01-13T09:06:22.955Z,21.47
2018-01-13T09:08:48.941Z,21.55
2018-01-13T09:11:14.926Z,21.54
2018-01-13T09:13:40.905Z,21.54
2018-01-13T09:18:40.120Z,21.70
2018-01-13T09:21:06.130Z,21.69
2018-01-13T09:23:32.142Z,21.72
2018-01-13T09:25:58.283Z,21.78
2018-01-13T09:28:24.270Z,21.79
2018-01-13T09:30:50.283Z,21.77
2018-01-13T09:33:16.264Z,21.62
2018-01-13T09:35:42.259Z,21.72
2018-01-13T09:38:08.236Z,21.68
2018-01-13T09:40:34.217Z,21.62
2018-01-13T09:43:00.221Z,21.58
2018-01-13T09:45:26.330Z,21.73
2018-01-13T09:47:52.268Z,21.69
2018-01-13T09:50:18.271Z,21.66
2018-01-13T09:52:44.230Z,21.65
2018-01-13T09:55:10.180Z,21.67
2018-01-13T09:57:36.236Z,21.68
2018-01-13T10:00:02.203Z,21.59
2018-01-13T10:02:28.187Z,21.61
2018-01-13T10:04:54.156Z,21.73
2018-01-13T10:07:20.130Z,21.67
2018-01-13T10:09:46.134Z,21.81
2018-01-13T10:12:18.000Z,21.80
2018-01-13T10:14:43.983Z,21.62
2018-01-13T10:17:09.979Z,21.66
2018-01-13T10:19:35.941Z,21.69
2018-01-13T10:22:02.033Z,21.69
2018-01-13T10:24:28.027Z,21.81
2018-01-13T10:26:53.982Z,21.79
2018-01-13T10:29:20.066Z,21.82
2018-01-13T10:31:46.060Z,21.71
2018-01-13T10:34:12.072Z,21.72
2018-01-13T10:36:38.052Z,21.76
2018-01-13T10:39:04.077Z,21.70
2018-01-13T10:41:30.052Z,21.73
2018-01-13T10:43:56.040Z,21.75
2018-01-13T10:46:22.014Z,21.73
2018-01-13T10:48:53.622Z,21.87
2018-01-13T10:51:19.585Z,21.72
2018-01-13T10:53:45.548Z,21.78
2018-01-13T10:56:11.509Z,21.86
2018-01-13T10:58:37.482Z,21.78
2018-01-13T11:01:03.477Z,21.89
2018-01-13T11:03:29.448Z,21.84
2018-01-13T11:05:55.418Z,21.83
2018-01-13T11:08:21.373Z,21.83
2018-01-13T11:10:47.390Z,21.76
2018-01-13T11:13:13.379Z,21.77
2018-01-13T11:15:39.414Z,21.72
2018-01-13T11:18:05.382Z,21.72
2018-01-13T11:20:31.357Z,21.74
2018-01-13T11:22:57.340Z,21.65
2018-01-13T11:25:23.357Z,21.66
2018-01-13T11:27:49.385Z,21.72
2018-01-13T11:30:15.343Z,21.60
2018-01-13T11:32:41.987Z,21.53
2018-01-13T11:35:10.027Z,21.66
2018-01-13T11:37:36.020Z,21.79
2018-01-13T11:40:02.005Z,21.76
2018-01-13T11:42:28.030Z,21.67
2018-01-13T11:44:54.036Z,21.76
2018-01-13T11:47:20.065Z,21.85
2018-01-13T11:49:46.048Z,21.93
2018-01-13T11:52:12.005Z,21.85
2018-01-13T11:54:37.978Z,21.84
2018-01-13T11:57:03.990Z,21.86
2018-01-13T11:59:29.999Z,21.80
2018-01-13T12:01:56.892Z,21.83
2018-01-13T12:04:22.903Z,21.87
2018-01-13T12:06:48.856Z,21.82
2018-01-13T12:09:14.831Z,21.71
2018-01-13T12:11:41.914Z,21.82
2018-01-13T12:14:09.956Z,21.84
2018-01-13T12:16:36.018Z,21.75
2018-01-13T12:19:01.986Z,21.82
2018-01-13T12:21:27.993Z,21.74
2018-01-13T12:23:53.947Z,21.75
2018-01-13T12:26:19.924Z,21.87
2018-01-13T12:28:45.925Z,21.77
2018-01-13T12:31:11.906Z,21.79
2018-01-13T12:33:37.894Z,21.87
2018-01-13T12:36:03.863Z,21.81
2018-01-13T12:38:29.864Z,21.86
2018-01-13T12:40:55.864Z,21.86
2018-01-13T12:43:21.846Z,21.95
2018-01-13T12:45:47.793Z,21.88
2018-01-13T12:48:14.025Z,21.81
2018-01-13T12:50:39.974Z,21.83
2018-01-13T12:53:05.961Z,21.77
2018-01-13T12:55:31.919Z,21.76
2018-01-13T12:57:57.905Z,21.76
2018-01-13T13:00:23.999Z,21.74
2018-01-13T13:02:49.978Z,21.69
2018-01-13T13:05:15.950Z,21.75
2018-01-13T13:07:41.936Z,21.71
2018-01-13T13:10:07.886Z,21.72
2018-01-13T13:12:33.872Z,21.75
2018-01-13T13:14:59.870Z,21.74
2018-01-13T13:17:25.847Z,21.84
2018-01-13T13:19:51.839Z,21.83
2018-01-13T13:22:17.844Z,21.91
2018-01-13T13:24:43.824Z,21.83
2018-01-13T13:27:09.835Z,21.84
2018-01-13T13:29:35.870Z,21.91
2018-01-13T13:32:01.870Z,21.96
2018-01-13T13:34:27.839Z,21.84
2018-01-13T13:36:53.812Z,21.96
2018-01-13T13:39:24.566Z,21.74
2018-01-13T13:41:50.733Z,21.77
2018-01-13T13:44:16.788Z,21.81
2018-01-13T13:46:42.748Z,21.77
2018-01-13T13:49:08.737Z,21.73
2018-01-13T13:51:34.709Z,21.77
2018-01-13T13:54:00.798Z,21.74
2018-01-13T13:56:26.797Z,21.72
2018-01-13T13:58:52.810Z,21.83
2018-01-13T14:01:28.592Z,21.82
2018-01-13T14:03:44.774Z,21.84
2018-01-13T14:06:10.784Z,21.76
2018-01-13T14:08:36.811Z,21.87
2018-01-13T14:11:02.778Z,21.90
2018-01-13T14:13:28.773Z,21.92
2018-01-13T14:18:26.755Z,21.73
2018-01-13T14:20:52.748Z,21.59
2018-01-13T14:23:18.728Z,21.51
2018-01-13T14:25:44.802Z,21.61
2018-01-13T14:28:10.783Z,21.41
2018-01-13T14:30:36.762Z,21.29
2018-01-13T14:33:02.759Z,21.64
2018-01-13T14:35:28.761Z,21.69
2018-01-13T14:37:55.099Z,21.64
2018-01-13T14:40:21.892Z,21.65
2018-01-13T14:42:48.323Z,21.68
2018-01-13T14:45:15.449Z,21.67
2018-01-13T14:47:42.580Z,21.70
2018-01-13T14:50:08.785Z,21.75
2018-01-13T14:52:34.847Z,21.74
2018-01-13T14:55:00.813Z,21.77
2018-01-13T14:57:26.779Z,21.77
2018-01-13T14:59:52.752Z,21.94
2018-01-13T15:02:18.717Z,21.96
2018-01-13T15:04:44.678Z,21.96
2018-01-13T15:07:10.641Z,21.78
2018-01-13T15:09:36.595Z,21.28
2018-01-13T15:12:02.567Z,21.19
2018-01-13T15:14:28.497Z,21.51
2018-01-13T15:16:54.437Z,21.69
2018-01-13T15:19:20.378Z,21.59
2018-01-13T15:21:46.362Z,21.79
2018-01-13T15:24:12.305Z,21.68
2018-01-13T15:26:38.274Z,21.75
2018-01-13T15:29:04.221Z,21.71
2018-01-13T15:31:30.173Z,21.66
2018-01-13T15:33:56.113Z,21.72
2018-01-13T15:36:22.069Z,21.72
2018-01-13T15:38:48.041Z,21.72
2018-01-13T15:41:14.003Z,21.81
2018-01-13T15:43:39.936Z,21.71
2018-01-13T15:46:05.914Z,21.76
2018-01-13T15:48:31.874Z,21.76
2018-01-13T15:50:57.868Z,21.77
2018-01-13T15:53:23.805Z,21.73
2018-01-13T15:55:49.853Z,21.82
2018-01-13T15:58:15.821Z,21.84
2018-01-13T16:00:41.800Z,21.72
2018-01-13T16:03:07.752Z,21.75
2018-01-13T16:05:33.710Z,21.73
2018-01-13T16:07:59.679Z,21.72
2018-01-13T16:10:25.782Z,21.78
2018-01-13T16:12:51.740Z,21.21
2018-01-13T16:15:17.769Z,21.48
2018-01-13T16:17:43.744Z,21.46
2018-01-13T16:20:09.685Z,21.62
2018-01-13T16:22:35.641Z,21.71
2018-01-13T16:25:01.676Z,21.53
2018-01-13T16:27:27.626Z,21.54
2018-01-13T16:29:53.654Z,21.66
2018-01-13T16:32:19.609Z,21.71
2018-01-13T16:34:45.560Z,21.66
2018-01-13T16:37:11.514Z,21.82
2018-01-13T16:39:37.490Z,21.83
2018-01-13T16:42:03.458Z,21.64
2018-01-13T16:44:29.490Z,21.34
2018-01-13T16:46:55.429Z,21.30
2018-01-13T16:49:21.451Z,21.32
2018-01-13T16:51:47.421Z,21.34
2018-01-13T16:54:13.370Z,21.33
2018-01-13T16:56:39.329Z,21.27
2018-01-13T16:59:05.281Z,21.56
2018-01-13T17:01:31.314Z,21.57
2018-01-13T17:03:57.274Z,21.53
2018-01-13T17:06:23.209Z,21.54
2018-01-13T17:08:49.163Z,21.57
2018-01-13T17:11:15.129Z,21.66
2018-01-13T17:13:41.101Z,21.62
2018-01-13T17:16:07.052Z,21.66
2018-01-13T17:18:33.045Z,21.59
2018-01-13T17:20:59.005Z,21.60
2018-01-13T17:23:25.042Z,21.63
2018-01-13T17:25:50.984Z,21.64
2018-01-13T17:28:16.982Z,21.78
2018-01-13T17:30:43.938Z,21.81
2018-01-13T17:33:09.938Z,21.77
2018-01-13T17:35:35.896Z,21.82
2018-01-13T17:38:01.846Z,21.82
2018-01-13T17:40:27.857Z,21.77
2018-01-13T17:42:53.950Z,21.79
2018-01-13T17:45:19.894Z,21.79
2018-01-13T17:47:45.840Z,21.64
2018-01-13T17:50:11.811Z,21.63
2018-01-13T17:52:37.783Z,21.63
2018-01-13T17:55:03.736Z,21.61
2018-01-13T17:57:29.693Z,21.71
2018-01-13T17:59:55.654Z,21.67
2018-01-13T18:02:21.605Z,21.66
2018-01-13T18:04:47.668Z,21.71
2018-01-13T18:07:13.639Z,21.82
2018-01-13T18:09:39.589Z,21.82
2018-01-13T18:12:05.552Z,21.75
2018-01-13T18:14:31.502Z,21.64
2018-01-13T18:16:57.453Z,21.88
2018-01-13T18:19:23.454Z,21.92
2018-01-13T18:21:49.646Z,21.90
2018-01-13T18:24:15.657Z,21.96
2018-01-13T18:26:41.613Z,21.88
2018-01-13T18:29:07.677Z,21.84
2018-01-13T18:31:33.620Z,21.76
2018-01-13T18:33:59.573Z,21.77
2018-01-13T18:36:25.586Z,21.77
2018-01-13T18:38:51.573Z,21.69
2018-01-13T18:41:17.525Z,21.73
2018-01-13T18:43:43.473Z,21.77
2018-01-13T18:46:09.429Z,21.76
2018-01-13T18:48:35.435Z,21.89
2018-01-13T18:51:01.378Z,21.90
2018-01-13T18:53:27.397Z,21.90
2018-01-13T18:55:53.342Z,21.91
2018-01-13T18:58:19.305Z,21.83
2018-01-13T19:00:45.385Z,21.78
2018-01-13T19:03:11.357Z,21.73
2018-01-13T19:05:37.348Z,21.65
2018-01-13T19:08:03.250Z,21.61
2018-01-13T19:10:29.195Z,21.78
2018-01-13T19:12:55.134Z,21.86
2018-01-13T19:15:21.101Z,21.90
2018-01-13T19:17:47.045Z,21.86
2018-01-13T19:20:13.112Z,21.81
2018-01-13T19:22:39.056Z,21.77
2018-01-13T19:25:05.018Z,21.83
2018-01-13T19:27:30.978Z,21.80
2018-01-13T19:29:57.006Z,21.76
2018-01-13T19:32:22.977Z,21.78
2018-01-13T19:34:48.923Z,21.76
2018-01-13T19:37:14.890Z,21.73
2018-01-13T19:39:40.873Z,21.77
2018-01-13T19:42:06.917Z,21.83
2018-01-13T19:44:32.853Z,21.87
2018-01-13T19:46:58.807Z,21.87
2018-01-13T19:49:24.766Z,21.82
2018-01-13T19:51:50.731Z,21.94
2018-01-13T19:54:16.718Z,21.86
2018-01-13T19:56:42.689Z,22.02
2018-01-13T19:59:08.653Z,21.93
2018-01-13T20:01:34.627Z,22.04
2018-01-13T20:04:00.608Z,22.05
2018-01-13T20:06:26.548Z,21.86
2018-01-13T20:08:52.452Z,21.91
2018-01-13T20:11:18.407Z,21.89
2018-01-13T20:13:44.414Z,21.84
2018-01-13T20:16:10.388Z,21.82
2018-01-13T20:18:36.341Z,21.83
2018-01-13T20:21:02.312Z,21.90
2018-01-13T20:23:28.287Z,21.84
2018-01-13T20:25:54.221Z,21.88
2018-01-13T20:28:20.214Z,21.85
2018-01-13T20:30:46.205Z,21.84
2018-01-13T20:33:12.222Z,21.84
2018-01-13T20:35:38.136Z,21.73
2018-01-13T20:38:04.085Z,21.83
2018-01-13T20:40:30.032Z,21.92
2018-01-13T20:42:55.990Z,21.98
2018-01-13T20:45:21.992Z,22.06
2018-01-13T20:47:48.062Z,22.01
2018-01-13T20:50:14.006Z,22.06
2018-01-13T20:52:39.981Z,21.99
2018-01-13T20:55:05.947Z,22.06
2018-01-13T20:57:31.896Z,21.98
2018-01-13T20:59:57.849Z,22.03
2018-01-13T21:02:23.803Z,21.96
2018-01-13T21:04:50.485Z,21.98
2018-01-13T21:07:16.582Z,21.94
2018-01-13T21:09:42.509Z,21.90
2018-01-13T21:12:08.470Z,21.85
2018-01-13T21:14:34.413Z,21.81
2018-01-13T21:17:00.385Z,21.81
2018-01-13T21:19:26.382Z,21.90
2018-01-13T21:21:52.445Z,21.90
2018-01-13T21:24:18.418Z,21.91
2018-01-13T21:26:44.461Z,22.03
2018-01-13T21:29:10.473Z,21.98
2018-01-13T21:31:36.434Z,21.99
2018-01-13T21:34:02.369Z,21.97
2018-01-13T21:36:28.382Z,21.93
2018-01-13T21:38:54.345Z,21.95
2018-01-13T21:41:20.291Z,22.01
2018-01-13T21:43:46.261Z,21.96
2018-01-13T21:46:12.286Z,21.95
2018-01-13T21:48:38.311Z,21.81
2018-01-13T21:51:04.286Z,21.89
2018-01-13T21:53:30.229Z,21.91
2018-01-13T21:55:56.211Z,21.95
2018-01-13T21:58:22.217Z,21.97
2018-01-13T22:00:48.188Z,21.93
2018-01-13T22:03:14.129Z,21.91
2018-01-13T22:05:40.111Z,21.88
2018-01-13T22:08:06.138Z,21.92
2018-01-13T22:10:32.077Z,21.94
2018-01-13T22:12:58.100Z,21.86
2018-01-13T22:15:24.057Z,21.96
2018-01-13T22:17:50.053Z,22.02
2018-01-13T22:20:16.022Z,21.99
2018-01-13T22:22:41.983Z,22.04
2018-01-13T22:25:07.920Z,22.00
2018-01-13T22:27:33.872Z,21.99
2018-01-13T22:29:59.817Z,21.99
2018-01-13T22:32:25.803Z,21.99
2018-01-13T22:34:51.777Z,21.93
2018-01-13T22:37:17.782Z,21.91
2018-01-13T22:39:43.730Z,21.87
2018-01-13T22:42:09.709Z,21.87
2018-01-13T22:44:35.665Z,21.92
2018-01-13T22:47:01.605Z,21.98
2018-01-13T22:49:27.614Z,21.91
2018-01-13T22:51:53.606Z,21.86
2018-01-13T22:54:19.668Z,21.88
2018-01-13T22:56:45.680Z,21.88
2018-01-13T22:59:11.709Z,21.97
2018-01-13T23:01:37.666Z,21.88
2018-01-13T23:04:03.686Z,21.97
2018-01-13T23:06:29.644Z,21.97
2018-01-13T23:08:55.588Z,21.98
2018-01-13T23:11:21.570Z,22.02
2018-01-13T23:13:47.580Z,22.04
2018-01-13T23:16:13.609Z,21.96
2018-01-13T23:18:39.550Z,21.96
2018-01-13T23:21:05.508Z,21.96
2018-01-13T23:23:31.619Z,21.85
2018-01-13T23:25:57.580Z,21.86
2018-01-13T23:28:23.553Z,21.70
2018-01-13T23:30:49.497Z,21.76
2018-01-13T23:33:15.450Z,21.83
2018-01-13T23:35:41.393Z,21.76
2018-01-13T23:38:07.342Z,21.79
2018-01-13T23:40:33.281Z,21.83
2018-01-13T23:42:59.246Z,21.88
2018-01-13T23:45:25.629Z,21.88
2018-01-13T23:47:51.623Z,21.76
2018-01-13T23:50:17.577Z,21.81
2018-01-13T23:52:43.521Z,21.74
2018-01-13T23:55:09.489Z,21.73
2018-01-13T23:57:35.469Z,21.78
